Current Conditions
Clear
Conditions



Pressure
1015.92 (mb) - 30 (inHG)
Visibility

6.2 (miles) - 10.0 (km)
   Temperature
13  °C
Temperature
10  °C
Dewpoint
82  %
 Humidity
   Wind Speed
5  mph
4  kts
8  km/h
2.2  m/s
   Wind Direction
N
45°
E
90°
135°
S
180°
225°
W
270°
315°
 170°

Due South
   Airport Data
EGGD
Bristol Airport
Metar :EGGD 171820Z AUTO 17004KT 130V210 9999 NCD 13/10 Q1016
Sun 17th October 19:20 pm
   Raw Metar Info
Raw METAR is the most common format in the world for the transmission of observational weather data. It is highly standardized through the International Civil Aviation Organization (ICAO), which allows it to be understood throughout most of the world.
   API Info
Data Provided by
https://www.checkwx.com/weather/EGGD

Aviation Weather providing METAR, TAF, AIRMET, SIGMET and OUTLOOK Weather Reports
   © Info
CSS/SVG/PHP scripts were developed by weather34.com for use in the weather34 template © 2015-2021

Guide Info provided by Metar-Wikipedia